John Murtha Johnstown Cambria County Airport Johnstown US
ICAO: KJST
IATA: JST
Category: Medium
Scheduled Services: Yes

Elevation: 2284 ft
TransAlt. 18000 ft.

Airport Communications:
ATIS:118.325
CLEVELAND CNTR:121.2
CTAF:125.75
GND:121.6
KEYSTONE OPS ARNG:36.5
ALTOONA RDO:122.65
TWR:125.75
UNICOM:122.95

KJST Zoom In..

If you have problems with the map follow the link
https://www.worldairports.se/pages/airport.php?
ICAO=KJST

Runways:

(A) RW 05 length 4386 ft width 100 ft
---- / hdg 49

(B) RW 15 length 7003 ft width 150 ft
---- / hdg 154

(C) RW 23 length 4386 ft width 100 ft
---- / hdg 229

(D) RW 33 length 7003 ft width 150 ft
ILS 110.10 / hdg 334

Location; KJST
Day. 23 / Time. 16.54 Zulu
* Altimeter: 30.01
* Temperature: 12° c. 53.6°f.
* Wind from: 290° Speed 16 kn with Gusts up to 29 kn.
Dewpoint: 02° c.
Visibility: 10 Statute Miles.
Clouds: Few 4300 ft.

KJST 231654Z AUTO 29016G29KT 10SM FEW043 12/02 A3001 RMK AO2 PK WND 28029/1652 SLP164 T01170017


Wind From 290°
Speed 16 kn.

 
 
jpsmedia.com for Web Design worldairports.se 2018   terms of use